Time,TemperatureF,DewpointF,PressureIn,WindDirection,WindDirectionDegrees,WindSpeedMPH,WindSpeedGustMPH,Humidity,HourlyPrecipIn,Conditions,Clouds,dailyrainin,SoftwareType,DateUTC
2013-08-25 00:12:00,77.1,74.0,30.11,SSE,150,0.0,0.0,91,0.00,,,0.35,weatherlink.com 1.10,2013-08-25 04:12:00,
2013-08-25 00:27:00,77.1,74.0,30.10,SSE,151,0.0,1.0,90,0.00,,,0.35,weatherlink.com 1.10,2013-08-25 04:27:00,
2013-08-25 00:43:00,77.4,75.0,30.09,SSE,150,0.0,0.0,91,0.00,,,0.35,weatherlink.com 1.10,2013-08-25 04:43:00,
2013-08-25 00:58:00,77.2,75.0,30.09,SSE,150,0.0,0.0,92,0.00,,,0.35,weatherlink.com 1.10,2013-08-25 04:58:00,
2013-08-25 01:13:00,77.2,75.0,30.09,SSE,150,0.0,1.0,93,0.00,,,0.35,weatherlink.com 1.10,2013-08-25 05:13:00,
2013-08-25 01:28:00,76.9,75.0,30.08,SSE,150,0.0,0.0,94,0.00,,,0.35,weatherlink.com 1.10,2013-08-25 05:28:00,
2013-08-25 01:43:00,76.6,75.0,30.08,SSE,150,0.0,0.0,94,0.00,,,0.35,weatherlink.com 1.10,2013-08-25 05:43:00,
2013-08-25 01:58:00,76.7,75.0,30.07,SSE,151,0.0,1.0,95,0.00,,,0.35,weatherlink.com 1.10,2013-08-25 05:58:00,
2013-08-25 02:13:00,76.9,75.0,30.07,West,262,0.0,3.0,95,0.00,,,0.35,weatherlink.com 1.10,2013-08-25 06:13:00,
2013-08-25 02:28:00,77.1,76.0,30.07,West,262,0.0,1.0,95,0.00,,,0.35,weatherlink.com 1.10,2013-08-25 06:28:00,
2013-08-25 02:43:00,77.1,75.0,30.07,West,276,2.0,4.0,94,0.00,,,0.35,weatherlink.com 1.10,2013-08-25 06:43:00,
2013-08-25 02:58:00,77.0,75.0,30.07,NW,313,0.0,3.0,94,0.00,,,0.35,weatherlink.com 1.10,2013-08-25 06:58:00,
2013-08-25 03:13:00,77.1,75.0,30.07,NW,313,0.0,1.0,94,0.00,,,0.35,weatherlink.com 1.10,2013-08-25 07:13:00,
2013-08-25 03:28:00,77.2,75.0,30.07,NW,313,0.0,1.0,94,0.00,,,0.35,weatherlink.com 1.10,2013-08-25 07:28:00,
2013-08-25 03:43:00,77.2,75.0,30.07,NW,313,1.0,3.0,94,0.00,,,0.35,weatherlink.com 1.10,2013-08-25 07:43:00,
2013-08-25 03:58:00,76.7,75.0,30.08,NW,309,2.0,4.0,94,0.00,,,0.35,weatherlink.com 1.10,2013-08-25 07:58:00,
2013-08-25 04:13:00,76.4,75.0,30.08,WNW,302,1.0,3.0,94,0.00,,,0.35,weatherlink.com 1.10,2013-08-25 08:13:00,
2013-08-25 04:28:00,76.5,75.0,30.09,NW,317,3.0,4.0,94,0.00,,,0.35,weatherlink.com 1.10,2013-08-25 08:28:00,
2013-08-25 04:43:00,76.5,75.0,30.08,NNW,339,4.0,5.0,94,0.00,,,0.35,weatherlink.com 1.10,2013-08-25 08:43:00,
2013-08-25 04:58:00,76.6,75.0,30.09,NW,326,4.0,6.0,94,0.00,,,0.35,weatherlink.com 1.10,2013-08-25 08:58:00,
2013-08-25 05:13:00,76.9,75.0,30.09,NNW,330,2.0,6.0,94,0.00,,,0.35,weatherlink.com 1.10,2013-08-25 09:13:00,
2013-08-25 05:28:00,76.7,75.0,30.10,NW,326,3.0,5.0,94,0.00,,,0.35,weatherlink.com 1.10,2013-08-25 09:28:00,
2013-08-25 05:43:00,76.5,75.0,30.10,NNW,329,2.0,6.0,94,0.00,,,0.35,weatherlink.com 1.10,2013-08-25 09:43:00,
2013-08-25 05:58:00,76.4,75.0,30.11,WNW,302,1.0,5.0,94,0.00,,,0.35,weatherlink.com 1.10,2013-08-25 09:58:00,
2013-08-25 06:13:00,76.4,75.0,30.11,NW,317,4.0,5.0,94,0.00,,,0.35,weatherlink.com 1.10,2013-08-25 10:13:00,
2013-08-25 06:28:00,76.3,75.0,30.11,WNW,303,3.0,6.0,94,0.00,,,0.35,weatherlink.com 1.10,2013-08-25 10:28:00,
2013-08-25 06:43:00,76.4,75.0,30.11,NNW,331,3.0,7.0,94,0.00,,,0.35,weatherlink.com 1.10,2013-08-25 10:43:00,
2013-08-25 06:58:00,76.7,75.0,30.12,WNW,303,3.0,7.0,93,0.00,,,0.35,weatherlink.com 1.10,2013-08-25 10:58:00,
2013-08-25 07:13:00,77.0,75.0,30.13,NW,324,4.0,7.0,93,0.00,,,0.35,weatherlink.com 1.10,2013-08-25 11:13:00,
2013-08-25 07:28:00,77.3,75.0,30.12,NW,317,5.0,8.0,93,0.00,,,0.35,weatherlink.com 1.10,2013-08-25 11:28:00,
2013-08-25 07:43:00,77.5,76.0,30.13,NNW,329,0.0,6.0,94,0.00,,,0.35,weatherlink.com 1.10,2013-08-25 11:43:00,
2013-08-25 07:58:00,77.7,76.0,30.14,North,360,0.0,5.0,94,0.00,,,0.35,weatherlink.com 1.10,2013-08-25 11:58:00,
2013-08-25 08:13:00,77.8,76.0,30.14,NW,317,1.0,4.0,94,0.00,,,0.35,weatherlink.com 1.10,2013-08-25 12:13:00,
2013-08-25 08:28:00,78.0,76.0,30.14,NNW,348,4.0,4.0,94,0.00,,,0.35,weatherlink.com 1.10,2013-08-25 12:28:00,
2013-08-25 08:43:00,78.4,76.0,30.15,NE,46,4.0,6.0,93,0.00,,,0.35,weatherlink.com 1.10,2013-08-25 12:43:00,
2013-08-25 08:58:00,79.1,76.0,30.15,North,350,2.0,8.0,90,0.00,,,0.35,weatherlink.com 1.10,2013-08-25 12:58:00,
2013-08-25 09:13:00,80.2,75.0,30.16,East,79,3.0,8.0,84,0.00,,,0.35,weatherlink.com 1.10,2013-08-25 13:13:00,
2013-08-25 09:28:00,81.3,77.0,30.16,ENE,75,5.0,9.0,85,0.00,,,0.35,weatherlink.com 1.10,2013-08-25 13:28:00,
2013-08-25 09:43:00,82.2,77.0,30.17,NE,47,3.0,12.0,84,0.00,,,0.35,weatherlink.com 1.10,2013-08-25 13:43:00,
2013-08-25 09:58:00,83.4,78.0,30.17,ENE,66,2.0,12.0,83,0.00,,,0.35,weatherlink.com 1.10,2013-08-25 13:58:00,
2013-08-25 10:13:00,83.7,77.0,30.18,NNE,26,3.0,12.0,81,0.00,,,0.35,weatherlink.com 1.10,2013-08-25 14:13:00,
2013-08-25 10:28:00,84.2,77.0,30.17,North,360,3.0,7.0,79,0.00,,,0.35,weatherlink.com 1.10,2013-08-25 14:28:00,
2013-08-25 10:43:00,84.8,77.0,30.17,ENE,61,7.0,8.0,77,0.00,,,0.35,weatherlink.com 1.10,2013-08-25 14:43:00,
2013-08-25 10:58:00,85.3,76.0,30.18,East,89,3.0,10.0,74,0.00,,,0.35,weatherlink.com 1.10,2013-08-25 14:58:00,
2013-08-25 11:13:00,85.3,76.0,30.18,NNE,26,3.0,8.0,73,0.00,,,0.35,weatherlink.com 1.10,2013-08-25 15:13:00,
2013-08-25 11:28:00,85.5,77.0,30.18,NE,52,1.0,8.0,76,0.00,,,0.35,weatherlink.com 1.10,2013-08-25 15:28:00,
2013-08-25 11:43:00,85.5,76.0,30.18,NE,46,6.0,12.0,74,0.00,,,0.35,weatherlink.com 1.10,2013-08-25 15:43:00,
2013-08-25 11:58:00,85.2,77.0,30.17,ENE,72,3.0,11.0,77,0.00,,,0.35,weatherlink.com 1.10,2013-08-25 15:58:00,
2013-08-25 12:13:00,85.1,76.0,30.17,ENE,60,7.0,11.0,75,0.00,,,0.35,weatherlink.com 1.10,2013-08-25 16:13:00,
2013-08-25 12:28:00,85.1,75.0,30.17,NNE,25,3.0,12.0,72,0.00,,,0.35,weatherlink.com 1.10,2013-08-25 16:28:00,
2013-08-25 12:43:00,85.7,76.0,30.16,ENE,71,3.0,8.0,73,0.00,,,0.35,weatherlink.com 1.10,2013-08-25 16:43:00,
2013-08-25 12:58:00,85.8,76.0,30.16,NNE,24,2.0,12.0,73,0.00,,,0.35,weatherlink.com 1.10,2013-08-25 16:58:00,
2013-08-25 13:13:00,86.2,76.0,30.15,NE,51,2.0,10.0,72,0.00,,,0.35,weatherlink.com 1.10,2013-08-25 17:13:00,
2013-08-25 13:28:00,86.6,77.0,30.14,ENE,75,4.0,10.0,72,0.00,,,0.35,weatherlink.com 1.10,2013-08-25 17:28:00,
2013-08-25 13:43:00,87.3,76.0,30.13,East,96,7.0,8.0,70,0.00,,,0.35,weatherlink.com 1.10,2013-08-25 17:43:00,
2013-08-25 13:58:00,88.8,77.0,30.13,NNE,24,2.0,8.0,68,0.00,,,0.35,weatherlink.com 1.10,2013-08-25 17:58:00,
2013-08-25 14:13:00,89.6,77.0,30.12,ENE,76,2.0,9.0,66,0.00,,,0.35,weatherlink.com 1.10,2013-08-25 18:13:00,
2013-08-25 14:28:00,90.2,77.0,30.11,NE,45,8.0,9.0,65,0.00,,,0.00,weatherlink.com 1.10,2013-08-25 18:28:00,
2013-08-25 14:43:00,89.1,77.0,30.11,NNE,12,3.0,11.0,67,0.00,,,0.00,weatherlink.com 1.10,2013-08-25 18:43:00,
2013-08-25 14:58:00,89.2,76.0,30.11,NE,51,1.0,8.0,66,0.00,,,0.00,weatherlink.com 1.10,2013-08-25 18:58:00,
2013-08-25 15:13:00,89.2,75.0,30.10,NE,51,2.0,8.0,64,0.00,,,0.00,weatherlink.com 1.10,2013-08-25 19:13:00,
2013-08-25 15:28:00,89.2,75.0,30.09,NE,50,6.0,10.0,63,0.00,,,0.00,weatherlink.com 1.10,2013-08-25 19:28:00,
2013-08-25 15:43:00,89.7,75.0,30.08,ENE,70,4.0,8.0,63,0.00,,,0.00,weatherlink.com 1.10,2013-08-25 19:43:00,
2013-08-25 15:58:00,88.9,76.0,30.08,East,83,7.0,11.0,65,0.00,,,0.00,weatherlink.com 1.10,2013-08-25 19:58:00,
2013-08-25 16:13:00,88.0,76.0,30.09,NE,55,4.0,8.0,67,0.00,,,0.00,weatherlink.com 1.10,2013-08-25 20:13:00,
2013-08-25 16:28:00,87.4,77.0,30.09,ENE,74,4.0,10.0,70,0.00,,,0.00,weatherlink.com 1.10,2013-08-25 20:28:00,
2013-08-25 16:44:00,86.7,76.0,30.08,ENE,74,5.0,9.0,71,0.00,,,0.00,weatherlink.com 1.10,2013-08-25 20:44:00,
2013-08-25 16:59:00,85.9,76.0,30.09,East,84,5.0,7.0,72,0.00,,,0.00,weatherlink.com 1.10,2013-08-25 20:59:00,
2013-08-25 17:14:00,85.4,76.0,30.09,NE,42,4.0,8.0,74,0.00,,,0.00,weatherlink.com 1.10,2013-08-25 21:14:00,
2013-08-25 17:29:00,84.3,76.0,30.09,NE,50,4.0,8.0,75,0.00,,,0.00,weatherlink.com 1.10,2013-08-25 21:29:00,
2013-08-25 17:44:00,84.4,75.0,30.09,ENE,69,3.0,8.0,74,0.00,,,0.00,weatherlink.com 1.10,2013-08-25 21:44:00,
2013-08-25 17:59:00,84.1,75.0,30.09,ENE,66,3.0,10.0,73,0.00,,,0.00,weatherlink.com 1.10,2013-08-25 21:59:00,
2013-08-25 18:14:00,83.9,74.0,30.09,ENE,65,7.0,9.0,73,0.00,,,0.00,weatherlink.com 1.10,2013-08-25 22:14:00,
2013-08-25 18:29:00,83.5,75.0,30.09,ENE,60,2.0,10.0,75,0.00,,,0.00,weatherlink.com 1.10,2013-08-25 22:29:00,
2013-08-25 18:44:00,83.3,75.0,30.10,ENE,61,4.0,6.0,75,0.00,,,0.00,weatherlink.com 1.10,2013-08-25 22:44:00,
2013-08-25 18:59:00,83.1,74.0,30.10,ENE,71,0.0,8.0,75,0.00,,,0.00,weatherlink.com 1.10,2013-08-25 22:59:00,
2013-08-25 19:14:00,83.0,74.0,30.10,NE,53,6.0,7.0,73,0.00,,,0.00,weatherlink.com 1.10,2013-08-25 23:14:00,
2013-08-25 19:29:00,82.8,73.0,30.11,NNE,30,4.0,7.0,72,0.00,,,0.00,weatherlink.com 1.10,2013-08-25 23:29:00,
2013-08-25 19:44:00,82.7,72.0,30.11,ENE,70,3.0,8.0,71,0.00,,,0.00,weatherlink.com 1.10,2013-08-25 23:44:00,
2013-08-25 19:59:00,82.7,72.0,30.11,NE,40,3.0,7.0,70,0.00,,,0.00,weatherlink.com 1.10,2013-08-25 23:59:00,
2013-08-25 20:14:00,82.5,73.0,30.12,NNE,28,1.0,5.0,72,0.00,,,0.00,weatherlink.com 1.10,2013-08-26 00:14:00,
2013-08-25 20:29:00,82.2,75.0,30.12,NNE,17,1.0,5.0,78,0.00,,,0.00,weatherlink.com 1.10,2013-08-26 00:29:00,
2013-08-25 20:44:00,82.0,75.0,30.12,NNE,30,5.0,5.0,80,0.00,,,0.00,weatherlink.com 1.10,2013-08-26 00:44:00,
2013-08-25 20:59:00,81.9,75.0,30.13,NE,42,1.0,6.0,80,0.00,,,0.00,weatherlink.com 1.10,2013-08-26 00:59:00,
2013-08-25 21:14:00,81.9,75.0,30.13,NE,42,1.0,5.0,80,0.00,,,0.00,weatherlink.com 1.10,2013-08-26 01:14:00,
2013-08-25 21:29:00,81.8,75.0,30.14,NE,35,0.0,4.0,80,0.00,,,0.00,weatherlink.com 1.10,2013-08-26 01:29:00,
2013-08-25 21:44:00,81.6,75.0,30.14,NNE,30,1.0,5.0,79,0.00,,,0.00,weatherlink.com 1.10,2013-08-26 01:44:00,
2013-08-25 21:59:00,81.7,75.0,30.14,NE,34,2.0,5.0,80,0.00,,,0.00,weatherlink.com 1.10,2013-08-26 01:59:00,
2013-08-25 22:14:00,81.8,75.0,30.14,NE,38,4.0,4.0,80,0.00,,,0.00,weatherlink.com 1.10,2013-08-26 02:14:00,
2013-08-25 22:29:00,81.8,75.0,30.15,NE,38,3.0,5.0,80,0.00,,,0.00,weatherlink.com 1.10,2013-08-26 02:29:00,
2013-08-25 22:44:00,81.7,75.0,30.14,NE,42,0.0,4.0,81,0.00,,,0.00,weatherlink.com 1.10,2013-08-26 02:44:00,
2013-08-25 22:59:00,81.6,76.0,30.15,NE,42,1.0,3.0,82,0.00,,,0.00,weatherlink.com 1.10,2013-08-26 02:59:00,
2013-08-25 23:14:00,81.5,76.0,30.15,NE,40,1.0,3.0,82,0.00,,,0.00,weatherlink.com 1.10,2013-08-26 03:14:00,
2013-08-25 23:29:00,81.3,75.0,30.16,NE,40,1.0,4.0,82,0.00,,,0.00,weatherlink.com 1.10,2013-08-26 03:29:00,
2013-08-25 23:44:00,81.2,75.0,30.16,NE,40,2.0,3.0,82,0.00,,,0.00,weatherlink.com 1.10,2013-08-26 03:44:00,
2013-08-25 23:59:00,81.1,76.0,30.15,NE,40,0.0,3.0,83,0.00,,,0.00,weatherlink.com 1.10,2013-08-26 03:59:00,